Time;durP1;ratioP1;P1;durP2;ratioP2;P2;SDS_P1;SDS_P2;PMS_P1;PMS_P2;Temp;Humidity;BMP_temperature;BMP_pressure;BME280_temperature;BME280_humidity;BME280_pressure;Samples;Min_cycle;Max_cycle;Signal;HPM_P1;HPM_P2
2021/11/23 00:00:44;;;;;;;5.10;4.60;;;1.30;99.90;;;;;;5070840;28;20796;-92
2021/11/23 00:03:11;;;;;;;6.13;5.00;;;;;;;;;;5076704;28;20539;-92
2021/11/23 00:05:39;;;;;;;6.00;5.40;;;;;;;;;;5026019;28;20455;-91
2021/11/23 00:08:09;;;;;;;6.53;4.20;;;;;;;;;;5041206;28;20468;-91
2021/11/23 00:10:36;;;;;;;8.07;5.10;;;;;;;;;;5077353;28;20530;-91
2021/11/23 00:13:04;;;;;;;6.20;5.00;;;;;;;;;;5070675;28;20459;-92
2021/11/23 00:15:34;;;;;;;4.63;4.10;;;;;;;;;;5077315;28;20439;-91
2021/11/23 00:18:01;;;;;;;6.80;6.07;;;;;;;;;;5072272;28;20463;-93
2021/11/23 00:20:28;;;;;;;5.70;5.03;;;;;;;;;;5076986;28;20772;-91
2021/11/23 00:22:56;;;;;;;8.60;5.47;;;;;;;;;;5076877;28;20480;-91
2021/11/23 00:25:23;;;;;;;6.80;5.33;;;;;;;;;;5073585;28;20447;-92
2021/11/23 00:27:50;;;;;;;5.80;4.83;;;;;;;;;;5076883;28;20432;-93
2021/11/23 00:30:19;;;;;;;5.37;4.87;;;;;;;;;;5072601;28;20448;-93
2021/11/23 00:32:48;;;;;;;6.43;5.00;;;;;;;;;;5075878;28;20560;-91
2021/11/23 00:35:15;;;;;;;5.80;5.07;;;;;;;;;;5072638;28;20447;-92
2021/11/23 00:37:46;;;;;;;6.87;5.73;;;;;;;;;;5076953;28;20455;-91
2021/11/23 00:40:13;;;;;;;7.70;4.97;;;;;;;;;;5072092;28;20447;-92
2021/11/23 00:42:41;;;;;;;5.80;5.20;;;;;;;;;;5076351;28;20443;-93
2021/11/23 00:45:09;;;;;;;7.17;5.70;;;;;;;;;;5076548;28;20439;-92
2021/11/23 00:47:38;;;;;;;8.83;6.07;;;;;;;;;;5071800;28;20459;-91
2021/11/23 00:50:06;;;;;;;8.37;5.07;;;;;;;;;;5074137;28;20454;-91
2021/11/23 00:52:33;;;;;;;7.90;5.40;;;;;;;;;;5073250;28;20861;-92
2021/11/23 00:55:01;;;;;;;5.90;5.30;;;;;;;;;;5076475;28;20442;-91
2021/11/23 00:57:28;;;;;;;7.23;5.90;;;;;;;;;;5072053;28;20446;-91
2021/11/23 00:59:55;;;;;;;6.60;5.40;;;;;;;;;;5076482;28;20439;-92
2021/11/23 01:02:23;;;;;;;7.90;5.90;;;0.80;99.90;;;;;;5072682;28;20903;-92
2021/11/23 01:04:51;;;;;;;9.63;5.60;;;;;;;;;;5067867;28;20496;-92
2021/11/23 01:07:18;;;;;;;8.07;6.20;;;;;;;;;;5071728;28;20487;-92
2021/11/23 01:09:45;;;;;;;7.90;5.57;;;;;;;;;;5072879;28;20488;-92
2021/11/23 01:12:12;;;;;;;6.00;5.10;;;;;;;;;;5071561;28;20470;-93
2021/11/23 01:14:40;;;;;;;7.23;5.37;;;0.70;99.90;;;;;;5071771;28;20471;-92
2021/11/23 01:17:07;;;;;;;10.10;5.30;;;;;;;;;;5070198;28;20806;-92
2021/11/23 01:19:34;;;;;;;8.10;6.17;;;;;;;;;;5069388;28;20454;-90
2021/11/23 01:22:03;;;;;;;7.83;5.67;;;;;;;;;;5072457;28;20914;-92
2021/11/23 01:24:30;;;;;;;10.90;6.80;;;;;;;;;;5076508;28;20490;-92
2021/11/23 01:26:57;;;;;;;8.77;6.03;;;;;;;;;;5058470;28;20463;-91
2021/11/23 01:29:24;;;;;;;8.00;5.63;;;;;;;;;;5053054;28;20456;-91
2021/11/23 01:31:51;;;;;;;5.80;5.20;;;;;;;;;;5065291;28;20977;-90
2021/11/23 01:34:41;;;;;;;7.20;5.07;;;0.80;99.90;;;;;;5054427;28;20451;-91
2021/11/23 01:37:10;;;;;;;6.50;4.70;;;;;;;;;;5057975;28;20488;-93
2021/11/23 01:39:37;;;;;;;9.57;5.70;;;;;;;;;;5055317;28;20449;-91
2021/11/23 01:42:04;;;;;;;8.50;5.70;;;;;;;;;;5052911;28;20456;-91
2021/11/23 01:44:31;;;;;;;5.93;5.20;;;;;;;;;;5063181;28;20548;-92
2021/11/23 01:47:07;;;;;;;6.53;5.10;;;;;;;;;;5067384;28;20451;-93
2021/11/23 01:49:34;;;;;;;8.47;6.07;;;;;;;;;;5057728;28;20454;-92
2021/11/23 01:52:01;;;;;;;7.00;5.17;;;;;;;;;;5057245;28;20454;-92
2021/11/23 01:54:30;;;;;;;8.77;5.23;;;;;;;;;;5060779;28;20439;-91
2021/11/23 01:56:57;;;;;;;6.90;5.20;;;;;;;;;;5070341;28;20459;-93
2021/11/23 01:59:26;;;;;;;8.23;5.40;;;;;;;;;;5075082;28;20482;-92
2021/11/23 02:01:53;;;;;;;6.40;4.97;;;;;;;;;;5071379;28;20459;-93
2021/11/23 02:04:20;;;;;;;6.90;6.03;;;;;;;;;;5074651;28;20495;-92
2021/11/23 02:06:47;;;;;;;7.87;5.80;;;;;;;;;;5074641;28;20488;-94
2021/11/23 02:09:17;;;;;;;7.63;5.73;;;;;;;;;;5074933;28;20442;-92
2021/11/23 02:11:46;;;;;;;8.40;6.30;;;;;;;;;;5068439;28;20457;-92
2021/11/23 02:14:13;;;;;;;6.20;5.60;;;;;;;;;;5074871;28;20439;-91
2021/11/23 02:16:40;;;;;;;6.73;5.60;;;;;;;;;;5070184;28;20435;-90
2021/11/23 02:19:07;;;;;;;8.20;5.57;;;;;;;;;;5074702;28;20450;-91
2021/11/23 02:21:36;;;;;;;7.83;5.90;;;;;;;;;;5074330;28;20443;-93
2021/11/23 02:24:03;;;;;;;6.83;6.10;;;;;;;;;;5070749;28;20482;-92
2021/11/23 02:26:31;;;;;;;6.93;5.93;;;;;;;;;;5074297;28;20934;-93
2021/11/23 02:28:58;;;;;;;6.70;6.00;;;;;;;;;;5071667;28;20459;-92
2021/11/23 02:31:25;;;;;;;7.23;5.93;;;;;;;;;;5070296;28;20541;-92
2021/11/23 02:33:52;;;;;;;8.57;5.87;;;;;;;;;;5074506;28;20918;-93
2021/11/23 02:36:19;;;;;;;9.63;6.27;;;;;;;;;;5074487;28;20447;-93
2021/11/23 02:38:49;;;;;;;6.73;5.70;;;;;;;;;;5074976;28;20948;-93
2021/11/23 02:41:17;;;;;;;6.30;5.63;;;0.10;99.90;;;;;;5067846;28;20548;-93
2021/11/23 02:43:44;;;;;;;8.60;6.10;;;;;;;;;;5074546;28;20482;-92
2021/11/23 02:46:12;;;;;;;6.40;5.57;;;;;;;;;;5073806;28;20451;-93
2021/11/23 02:48:39;;;;;;;7.37;6.10;;;;;;;;;;5071481;28;20478;-94
2021/11/23 02:51:08;;;;;;;7.50;5.70;;;0.10;99.90;;;;;;5071461;28;20458;-94
2021/11/23 02:53:35;;;;;;;6.93;5.70;;;;;;;;;;5074619;28;20461;-94
2021/11/23 02:56:04;;;;;;;6.77;5.93;;;;;;;;;;5074409;28;20457;-94
2021/11/23 02:58:33;;;;;;;11.83;5.77;;;0.00;99.90;;;;;;5074054;28;20434;-93
2021/11/23 03:01:00;;;;;;;8.20;5.77;;;;;;;;;;5064689;28;20556;-92
2021/11/23 03:03:27;;;;;;;7.03;5.87;;;;;;;;;;5074378;28;20449;-92
2021/11/23 03:05:56;;;;;;;7.53;6.13;;;;;;;;;;5070441;28;20477;-93
2021/11/23 03:08:23;;;;;;;8.57;6.33;;;;;;;;;;5074568;28;20458;-93
2021/11/23 03:10:50;;;;;;;6.57;5.33;;;;;;;;;;5071269;28;20461;-94
2021/11/23 03:13:18;;;;;;;8.30;5.77;;;;;;;;;;5071265;28;20461;-93
2021/11/23 03:15:46;;;;;;;8.57;6.53;;;;;;;;;;5071193;28;20492;-93
2021/11/23 03:18:13;;;;;;;8.37;6.03;;;;;;;;;;5073761;28;20924;-94
2021/11/23 03:20:43;;;;;;;7.87;5.67;;;;;;;;;;5070276;28;20442;-94
2021/11/23 03:23:10;;;;;;;9.30;5.90;;;;;;;;;;5070750;28;20427;-94
2021/11/23 03:25:37;;;;;;;8.93;6.90;;;;;;;;;;5070795;28;20477;-93
2021/11/23 03:28:05;;;;;;;8.30;6.13;;;;;;;;;;5074393;28;20450;-94
2021/11/23 03:30:34;;;;;;;6.40;5.67;;;;;;;;;;5070899;28;20941;-93
2021/11/23 03:33:02;;;;;;;6.77;5.67;;;-0.20;99.90;;;;;;5070767;28;20457;-92
2021/11/23 03:35:31;;;;;;;9.70;5.90;;;;;;;;;;5071544;28;20530;-93
2021/11/23 03:37:58;;;;;;;8.60;6.10;;;;;;;;;;5074134;28;20450;-93
2021/11/23 03:40:27;;;;;;;8.17;6.60;;;-0.30;99.90;;;;;;5074108;28;20519;-93
2021/11/23 03:42:55;;;;;;;9.63;6.57;;;-0.30;99.90;;;;;;5071659;28;20445;-93
2021/11/23 03:45:23;;;;;;;6.23;5.10;;;-0.30;99.90;;;;;;5074699;28;20490;-92
2021/11/23 03:47:52;;;;;;;7.40;5.70;;;;;;;;;;5073846;28;20429;-92
2021/11/23 03:50:19;;;;;;;8.80;6.50;;;;;;;;;;5077716;28;20436;-92
2021/11/23 03:52:47;;;;;;;10.87;7.27;;;;;;;;;;5074801;28;20461;-93
2021/11/23 03:55:16;;;;;;;7.57;6.10;;;;;;;;;;5077653;28;20555;-94
2021/11/23 03:57:43;;;;;;;6.93;5.90;;;;;;;;;;5074400;28;20453;-92
2021/11/23 04:00:12;;;;;;;8.67;6.80;;;-0.50;99.90;;;;;;5074347;28;20430;-94
2021/11/23 04:02:40;;;;;;;8.53;6.53;;;;;;;;;;5076917;28;20940;-93
2021/11/23 04:05:10;;;;;;;9.70;6.93;;;-0.70;99.90;;;;;;5077279;28;20498;-94
2021/11/23 04:07:40;;;;;;;6.60;5.90;;;;;;;;;;5073497;28;20483;-93
2021/11/23 04:10:07;;;;;;;9.33;7.20;;;;;;;;;;5077940;28;20433;-91
2021/11/23 04:12:35;;;;;;;8.60;6.60;;;;;;;;;;5077812;28;20449;-93
2021/11/23 04:15:02;;;;;;;9.33;6.30;;;;;;;;;;5075188;28;20445;-93
2021/11/23 04:17:29;;;;;;;8.80;6.07;;;;;;;;;;5074573;28;20519;-92
2021/11/23 04:19:56;;;;;;;8.20;5.87;;;;;;;;;;5083404;28;20468;-91
2021/11/23 04:22:25;;;;;;;10.10;6.87;;;;;;;;;;5089690;28;20449;-94
2021/11/23 04:24:52;;;;;;;10.90;7.40;;;;;;;;;;5088176;28;20493;-93
2021/11/23 04:27:19;;;;;;;8.17;6.47;;;;;;;;;;5080244;28;20473;-92
2021/11/23 04:29:47;;;;;;;9.00;6.67;;;;;;;;;;5074159;28;20800;-92
2021/11/23 04:32:14;;;;;;;8.33;6.57;;;;;;;;;;5076292;28;20482;-95
2021/11/23 04:34:41;;;;;;;9.30;7.00;;;;;;;;;;5076627;28;20477;-94
2021/11/23 04:37:08;;;;;;;9.53;6.40;;;;;;;;;;5074376;28;20437;-93
2021/11/23 04:39:37;;;;;;;8.97;6.70;;;;;;;;;;5073693;28;20453;-92
2021/11/23 04:42:04;;;;;;;17.23;6.60;;;;;;;;;;5069907;28;20464;-94
2021/11/23 04:44:31;;;;;;;8.70;6.23;;;;;;;;;;5073316;28;20591;-92
2021/11/23 04:46:58;;;;;;;10.30;6.50;;;;;;;;;;5072432;28;20458;-94
2021/11/23 04:49:25;;;;;;;9.37;7.40;;;;;;;;;;5072715;28;20557;-91
2021/11/23 04:51:53;;;;;;;9.03;6.50;;;;;;;;;;5073246;28;20506;-93
2021/11/23 04:54:20;;;;;;;11.00;7.40;;;;;;;;;;5076226;28;20437;-92
2021/11/23 04:56:48;;;;;;;12.13;7.47;;;;;;;;;;5073917;28;20598;-92
2021/11/23 04:59:16;;;;;;;8.57;6.07;;;;;;;;;;5073240;28;20475;-91
2021/11/23 05:01:43;;;;;;;10.00;6.90;;;;;;;;;;5075614;28;20437;-92
2021/11/23 05:04:10;;;;;;;10.13;7.37;;;;;;;;;;5072206;28;20442;-93
2021/11/23 05:06:37;;;;;;;10.83;6.83;;;;;;;;;;5072195;28;20473;-93
2021/11/23 05:09:04;;;;;;;9.60;6.67;;;;;;;;;;5073294;28;20449;-93
2021/11/23 05:11:35;;;;;;;7.47;5.60;;;;;;;;;;5076818;28;20801;-92
2021/11/23 05:14:03;;;;;;;8.90;6.67;;;;;;;;;;5072985;28;20472;-93
2021/11/23 05:16:30;;;;;;;11.73;6.83;;;;;;;;;;5072198;28;20463;-92
2021/11/23 05:18:58;;;;;;;11.83;6.10;;;;;;;;;;5077202;28;20457;-93
2021/11/23 05:21:25;;;;;;;10.40;7.07;;;;;;;;;;5076578;28;20456;-92
2021/11/23 05:23:52;;;;;;;8.70;6.87;;;;;;;;;;5072461;28;20443;-92
2021/11/23 05:26:19;;;;;;;10.90;7.63;;;;;;;;;;5072047;28;20852;-92
2021/11/23 05:28:46;;;;;;;10.60;7.70;;;;;;;;;;5069071;28;20460;-94
2021/11/23 05:31:15;;;;;;;9.70;7.60;;;;;;;;;;5075267;28;20478;-93
2021/11/23 05:33:42;;;;;;;9.43;6.60;;;;;;;;;;5069580;28;20445;-93
2021/11/23 05:36:09;;;;;;;10.40;6.97;;;;;;;;;;5076291;28;20441;-92
2021/11/23 05:38:36;;;;;;;14.40;8.17;;;;;;;;;;5072643;28;20495;-92
2021/11/23 05:41:03;;;;;;;10.27;7.77;;;;;;;;;;5076101;28;20441;-92
2021/11/23 05:43:31;;;;;;;10.63;7.10;;;;;;;;;;5072512;28;20468;-92
2021/11/23 05:45:58;;;;;;;10.30;7.33;;;;;;;;;;5074580;28;20522;-93
2021/11/23 05:48:27;;;;;;;15.60;7.87;;;;;;;;;;5069922;28;20441;-92
2021/11/23 05:50:54;;;;;;;11.83;7.67;;;;;;;;;;5072587;28;20559;-90
2021/11/23 05:53:21;;;;;;;11.13;7.13;;;;;;;;;;5072408;28;20442;-92
2021/11/23 05:55:48;;;;;;;10.93;6.43;;;;;;;;;;5075232;28;20457;-90
2021/11/23 05:58:15;;;;;;;9.30;6.83;;;;;;;;;;5072396;28;20468;-91
2021/11/23 06:00:42;;;;;;;11.27;7.90;;;;;;;;;;5073152;28;20471;-93
2021/11/23 06:03:10;;;;;;;12.57;7.30;;;;;;;;;;5071989;28;20507;-92
2021/11/23 06:05:38;;;;;;;9.50;6.57;;;;;;;;;;5068159;28;20496;-91
2021/11/23 06:08:06;;;;;;;10.70;7.37;;;;;;;;;;5067996;28;20457;-92
2021/11/23 06:10:33;;;;;;;11.90;7.63;;;;;;;;;;5075983;28;20461;-94
2021/11/23 06:13:00;;;;;;;12.00;8.10;;;;;;;;;;5079778;28;20933;-92
2021/11/23 06:15:28;;;;;;;11.67;7.40;;;-1.40;99.90;;;;;;5072723;28;20472;-92
2021/11/23 06:18:00;;;;;;;10.40;7.67;;;;;;;;;;5072874;28;20468;-91
2021/11/23 06:20:28;;;;;;;11.60;7.83;;;;;;;;;;5080366;28;20948;-92
2021/11/23 06:23:02;;;;;;;11.40;8.10;;;;;;;;;;5084230;28;20458;-92
2021/11/23 06:25:30;;;;;;;10.43;7.97;;;;;;;;;;5092675;28;20480;-93
2021/11/23 06:28:01;;;;;;;10.60;7.13;;;-1.50;99.90;;;;;;5096257;28;20460;-94
2021/11/23 06:30:31;;;;;;;12.10;8.30;;;;;;;;;;5082876;28;20445;-94
2021/11/23 06:32:58;;;;;;;13.07;7.37;;;;;;;;;;5084906;28;20491;-90
2021/11/23 06:35:26;;;;;;;12.57;8.70;;;;;;;;;;5085236;28;20544;-90
2021/11/23 06:37:53;;;;;;;9.20;7.70;;;;;;;;;;5084274;28;20442;-91
2021/11/23 06:40:21;;;;;;;11.87;8.57;;;;;;;;;;5083576;28;20446;-90
2021/11/23 06:42:48;;;;;;;13.47;8.30;;;;;;;;;;5083488;28;20452;-92
2021/11/23 06:45:16;;;;;;;10.67;8.03;;;;;;;;;;5078163;28;20882;-93
2021/11/23 06:47:45;;;;;;;10.97;7.80;;;;;;;;;;5072198;28;20435;-92
2021/11/23 06:50:13;;;;;;;10.87;7.93;;;;;;;;;;5075625;28;20465;-93
2021/11/23 06:52:40;;;;;;;12.00;8.30;;;;;;;;;;5061731;28;20448;-93
2021/11/23 06:55:07;;;;;;;12.67;9.03;;;;;;;;;;5072595;28;20449;-93
2021/11/23 06:57:36;;;;;;;12.37;8.03;;;;;;;;;;5075181;28;20459;-92
2021/11/23 07:00:05;;;;;;;15.63;9.37;;;-1.30;99.90;;;;;;5072683;28;20478;-94
2021/11/23 07:02:32;;;;;;;15.03;8.90;;;;;;;;;;5067076;28;20457;-95
2021/11/23 07:04:59;;;;;;;17.10;9.53;;;;;;;;;;5071826;28;20484;-94
2021/11/23 07:07:27;;;;;;;12.93;9.13;;;;;;;;;;5068520;28;20483;-94
2021/11/23 07:09:54;;;;;;;12.90;9.37;;;;;;;;;;5075049;28;20520;-93
2021/11/23 07:12:21;;;;;;;16.67;9.40;;;;;;;;;;5075514;28;20943;-93
2021/11/23 07:14:50;;;;;;;13.87;9.50;;;;;;;;;;5072110;28;20457;-93
2021/11/23 07:17:17;;;;;;;13.00;8.97;;;;;;;;;;5076226;28;20457;-95
2021/11/23 07:19:44;;;;;;;11.43;8.77;;;;;;;;;;5079540;28;20461;-93
2021/11/23 07:22:11;;;;;;;16.70;10.83;;;;;;;;;;5079924;28;20453;-94
2021/11/23 07:24:38;;;;;;;19.50;10.43;;;;;;;;;;5079263;28;20456;-92
2021/11/23 07:27:06;;;;;;;14.03;9.83;;;-1.00;99.90;;;;;;5078730;28;20449;-93
2021/11/23 07:29:33;;;;;;;13.37;9.47;;;;;;;;;;5087237;28;20468;-93
2021/11/23 07:32:02;;;;;;;18.07;10.43;;;;;;;;;;5089164;28;20479;-94
2021/11/23 07:34:30;;;;;;;16.33;10.17;;;;;;;;;;5086937;28;20457;-94
2021/11/23 07:36:57;;;;;;;14.10;10.80;;;;;;;;;;5082640;28;20514;-93
2021/11/23 07:39:26;;;;;;;14.70;9.97;;;;;;;;;;5079642;28;20449;-94
2021/11/23 07:41:53;;;;;;;15.30;10.40;;;;;;;;;;5075974;28;20456;-95
2021/11/23 07:44:20;;;;;;;14.40;9.57;;;;;;;;;;5078231;28;20450;-93
2021/11/23 07:46:47;;;;;;;13.20;9.00;;;;;;;;;;5077330;28;20492;-94
2021/11/23 07:49:16;;;;;;;15.03;10.40;;;;;;;;;;5074907;28;20434;-94
2021/11/23 07:51:44;;;;;;;14.40;9.87;;;;;;;;;;5078197;28;20427;-93
2021/11/23 07:54:11;;;;;;;18.43;12.50;;;;;;;;;;5077987;28;20441;-94
2021/11/23 07:56:38;;;;;;;16.70;10.90;;;;;;;;;;5076837;28;20499;-92
2021/11/23 07:59:06;;;;;;;15.43;11.40;;;;;;;;;;5076032;28;20851;-91
2021/11/23 08:01:33;;;;;;;16.57;11.17;;;;;;;;;;5079096;28;20938;-92
2021/11/23 08:04:00;;;;;;;18.70;10.43;;;;;;;;;;5080215;28;20474;-89
2021/11/23 08:06:29;;;;;;;12.53;9.50;;;;;;;;;;5080237;28;20563;-93
2021/11/23 08:08:56;;;;;;;12.93;9.60;;;;;;;;;;5080238;28;20435;-92
2021/11/23 08:11:24;;;;;;;11.47;8.00;;;;;;;;;;5083381;28;20509;-93
2021/11/23 08:13:51;;;;;;;10.83;8.90;;;;;;;;;;5081266;28;20550;-94
2021/11/23 08:16:18;;;;;;;10.63;7.60;;;;;;;;;;5080513;28;20448;-92
2021/11/23 08:18:45;;;;;;;11.50;8.70;;;;;;;;;;5077679;28;20449;-92
2021/11/23 08:21:12;;;;;;;8.00;6.90;;;;;;;;;;5076605;28;20456;-92
2021/11/23 08:23:41;;;;;;;9.50;8.40;;;;;;;;;;5072718;28;20452;-92
2021/11/23 08:26:08;;;;;;;11.93;7.40;;;;;;;;;;5078074;28;20489;-93
2021/11/23 08:28:37;;;;;;;8.03;7.13;;;;;;;;;;5078503;28;20450;-93
2021/11/23 08:31:04;;;;;;;8.80;7.80;;;;;;;;;;5077831;28;20471;-88
2021/11/23 08:33:31;;;;;;;9.20;8.03;;;;;;;;;;5076542;28;20439;-93
2021/11/23 08:35:58;;;;;;;8.60;7.70;;;;;;;;;;5076121;28;20787;-92
2021/11/23 08:38:26;;;;;;;8.07;7.23;;;;;;;;;;5078793;28;20453;-91
2021/11/23 08:40:54;;;;;;;8.20;7.40;;;;;;;;;;5078977;28;20442;-93
2021/11/23 08:43:21;;;;;;;10.23;8.10;;;;;;;;;;5075933;28;20454;-92
2021/11/23 08:45:49;;;;;;;10.23;9.10;;;;;;;;;;5077430;28;20489;-94
2021/11/23 08:48:16;;;;;;;10.03;7.70;;;;;;;;;;5081468;28;20458;-92
2021/11/23 08:50:43;;;;;;;10.67;9.27;;;;;;;;;;5083996;28;20461;-92
2021/11/23 08:53:11;;;;;;;12.17;8.53;;;;;;;;;;5088575;22;20806;-93
2021/11/23 08:55:39;;;;;;;12.20;7.20;;;5.80;99.90;;;;;;5089965;28;20454;-90
2021/11/23 08:58:10;;;;;;;8.80;7.53;;;5.60;99.90;;;;;;5080150;28;20496;-88
2021/11/23 09:00:37;;;;;;;8.53;7.33;;;6.00;99.90;;;;;;5071547;28;20443;-87
2021/11/23 09:03:05;;;;;;;7.70;7.00;;;;;;;;;;5065032;28;20510;-87
2021/11/23 09:05:35;;;;;;;6.70;6.07;;;6.60;99.90;;;;;;5056321;28;20501;-92
2021/11/23 09:08:03;;;;;;;11.70;6.90;;;;;;;;;;5053486;28;20826;-91
2021/11/23 09:10:34;;;;;;;9.93;7.40;;;6.50;99.90;;;;;;5056193;28;20446;-91
2021/11/23 09:13:01;;;;;;;7.97;7.17;;;;;;;;;;5052870;28;20505;-89
2021/11/23 09:15:30;;;;;;;6.47;5.87;;;6.10;99.90;;;;;;5055130;28;20447;-90
2021/11/23 09:17:59;;;;;;;7.40;6.70;;;6.50;99.90;;;;;;5054161;28;20962;-90
2021/11/23 09:20:33;;;;;;;7.07;6.40;;;6.70;99.90;;;;;;5071386;28;20451;-90
2021/11/23 09:23:01;;;;;;;7.47;6.77;;;7.00;99.90;;;;;;5072183;28;20929;-90
2021/11/23 09:25:28;;;;;;;6.87;6.17;;;;;;;;;;5067359;28;20446;-88
2021/11/23 09:27:59;;;;;;;6.93;6.23;;;;;;;;;;5072023;28;20438;-91
2021/11/23 09:30:31;;;;;;;8.43;7.00;;;7.30;99.90;;;;;;5071982;28;20450;-90
2021/11/23 09:32:59;;;;;;;6.40;5.80;;;;;;;;;;5074614;28;20426;-93
2021/11/23 09:35:26;;;;;;;6.63;6.03;;;;;;;;;;5072384;28;20458;-90
2021/11/23 09:37:53;;;;;;;7.50;6.03;;;;;;;;;;5070301;28;20939;-91
2021/11/23 09:40:21;;;;;;;8.80;6.27;;;;;;;;;;5074982;28;20442;-91
2021/11/23 09:42:50;;;;;;;6.63;6.03;;;7.60;99.90;;;;;;5075074;28;20531;-90
2021/11/23 09:45:17;;;;;;;7.77;6.97;;;;;;;;;;5075268;28;20452;-90
2021/11/23 09:47:46;;;;;;;8.50;6.63;;;7.80;99.90;;;;;;5074099;28;20498;-91
2021/11/23 09:50:13;;;;;;;6.83;6.20;;;;;;;;;;5069577;28;20443;-91
2021/11/23 09:52:41;;;;;;;9.73;6.90;;;;;;;;;;5075264;28;20466;-91
2021/11/23 09:55:10;;;;;;;8.20;6.77;;;8.20;99.90;;;;;;5072084;28;20569;-91
2021/11/23 09:57:37;;;;;;;6.63;6.03;;;;;;;;;;5075734;28;20442;-91
2021/11/23 10:00:22;;;;;;;7.00;6.30;;;8.30;99.90;;;;;;5075167;28;20965;-89
2021/11/23 10:02:51;;;;;;;6.20;5.70;;;8.30;99.90;;;;;;5074082;28;20871;-90
2021/11/23 10:05:19;;;;;;;6.73;5.47;;;;;;;;;;5074442;28;20787;-91
2021/11/23 10:07:46;;;;;;;6.13;5.10;;;8.30;99.90;;;;;;5074411;28;20517;-93
2021/11/23 10:10:17;;;;;;;6.83;6.13;;;8.40;99.90;;;;;;5072095;28;20446;-91
2021/11/23 10:12:53;;;;;;;6.80;6.10;;;8.20;99.90;;;;;;5074455;28;20445;-90
2021/11/23 10:15:23;;;;;;;5.93;5.33;;;8.20;99.90;;;;;;5068862;28;20439;-91
2021/11/23 10:17:53;;;;;;;5.80;5.17;;;8.30;99.90;;;;;;5053387;28;20545;-90
2021/11/23 10:20:34;;;;;;;6.27;5.67;;;8.70;99.90;;;;;;5054286;28;20450;-90
2021/11/23 10:23:20;;;;;;;6.87;5.70;;;8.90;99.80;;;;;;5054021;28;20457;-90
2021/11/23 10:25:50;;;;;;;6.27;5.53;;;9.10;99.90;;;;;;5054008;28;21040;-91
2021/11/23 10:28:17;;;;;;;6.13;5.60;;;;;;;;;;5054086;28;20946;-92
2021/11/23 10:30:47;;;;;;;8.87;5.80;;;9.30;99.80;;;;;;5056186;28;20443;-89
2021/11/23 10:33:17;;;;;;;6.50;5.90;;;9.20;99.90;;;;;;5050771;28;20462;-93
2021/11/23 10:35:45;;;;;;;7.73;5.73;;;8.70;99.90;;;;;;5050126;28;20799;-91
2021/11/23 10:38:14;;;;;;;8.37;5.63;;;;;;;;;;5054260;28;20530;-89
2021/11/23 10:40:43;;;;;;;5.33;4.83;;;9.50;98.80;;;;;;5054449;28;20453;-89
2021/11/23 10:43:13;;;;;;;5.70;5.20;;;9.30;98.00;;;;;;5053995;28;20530;-90
2021/11/23 10:45:42;;;;;;;5.13;4.63;;;8.80;98.40;;;;;;5053922;28;20439;-90
2021/11/23 10:48:10;;;;;;;5.27;4.83;;;9.40;98.10;;;;;;5052992;28;20446;-88
2021/11/23 10:50:41;;;;;;;4.50;4.10;;;9.70;98.10;;;;;;5050984;28;20816;-89
2021/11/23 10:53:12;;;;;;;4.80;4.07;;;9.40;97.20;;;;;;5052934;28;20454;-89
2021/11/23 10:55:41;;;;;;;4.60;4.20;;;;;;;;;;5052725;28;20455;-89
2021/11/23 10:58:08;;;;;;;4.60;3.97;;;8.20;99.00;;;;;;5053673;28;20522;-89
2021/11/23 11:00:39;;;;;;;5.20;4.10;;;8.40;98.50;;;;;;5053394;28;20431;-89
2021/11/23 11:03:07;;;;;;;6.33;4.10;;;8.50;98.70;;;;;;5031347;28;20475;-88
2021/11/23 11:05:36;;;;;;;7.13;4.23;;;9.60;97.90;;;;;;5033119;28;20439;-89
2021/11/23 11:08:05;;;;;;;5.00;3.93;;;9.20;97.30;;;;;;5033139;28;21029;-89
2021/11/23 11:10:33;;;;;;;4.00;3.70;;;9.00;99.20;;;;;;5033188;28;20467;-90
2021/11/23 11:13:03;;;;;;;7.53;4.30;;;9.40;98.80;;;;;;5033526;28;20448;-88
2021/11/23 11:15:33;;;;;;;4.43;4.00;;;9.20;97.50;;;;;;5015721;28;21007;-90
2021/11/23 11:18:07;;;;;;;5.07;4.13;;;10.00;96.00;;;;;;5029905;28;20458;-92
2021/11/23 11:20:40;;;;;;;4.70;4.30;;;9.70;97.30;;;;;;5033127;28;20502;-90
2021/11/23 11:23:11;;;;;;;5.07;4.27;;;9.70;96.90;;;;;;5027885;28;20460;-89
2021/11/23 11:25:54;;;;;;;7.20;4.67;;;8.80;96.80;;;;;;5033476;28;20450;-90
2021/11/23 11:28:36;;;;;;;4.50;4.10;;;8.20;98.70;;;;;;5033117;28;20480;-90
2021/11/23 11:31:07;;;;;;;5.13;4.40;;;8.90;98.60;;;;;;5031977;28;20470;-90
2021/11/23 11:33:34;;;;;;;7.00;4.30;;;;;;;;;;5032286;28;20459;-91
2021/11/23 11:36:02;;;;;;;4.93;4.43;;;;;;;;;;5032475;28;20936;-90
2021/11/23 11:38:41;;;;;;;5.03;4.63;;;9.30;99.10;;;;;;5032486;28;20509;-90
2021/11/23 11:41:24;;;;;;;5.17;4.67;;;9.90;97.60;;;;;;5033118;28;20459;-90
2021/11/23 11:44:07;;;;;;;6.27;4.50;;;10.20;97.00;;;;;;5032243;28;20448;-89
2021/11/23 11:46:34;;;;;;;5.40;4.90;;;;;;;;;;5031806;28;20491;-92
2021/11/23 11:49:02;;;;;;;4.90;4.50;;;;;;;;;;5032727;28;20451;-90
2021/11/23 11:51:35;;;;;;;5.33;4.83;;;10.10;97.40;;;;;;5036205;28;20447;-89
2021/11/23 11:54:16;;;;;;;5.40;4.90;;;9.90;98.10;;;;;;5032448;28;20483;-90
2021/11/23 11:56:52;;;;;;;7.50;5.10;;;10.00;97.70;;;;;;5028792;28;20943;-90
2021/11/23 11:59:35;;;;;;;8.03;5.50;;;10.40;96.80;;;;;;5032744;28;20443;-89
2021/11/23 12:02:07;;;;;;;5.60;5.10;;;10.10;97.40;;;;;;5032067;28;20902;-89
2021/11/23 12:04:57;;;;;;;6.70;5.70;;;9.60;97.80;;;;;;5040180;28;21077;-88
2021/11/23 12:07:37;;;;;;;10.90;7.57;;;10.10;98.00;;;;;;5051331;28;20501;-88
2021/11/23 12:10:20;;;;;;;6.10;5.50;;;9.70;98.40;;;;;;5054141;28;20466;-89
2021/11/23 12:13:12;;;;;;;12.40;7.20;;;9.70;98.00;;;;;;5052041;28;20488;-89
2021/11/23 12:16:06;;;;;;;8.43;6.60;;;9.90;97.50;;;;;;5052554;28;20451;-90
2021/11/23 12:18:54;;;;;;;6.27;5.70;;;10.00;96.60;;;;;;5040365;28;20815;-90
2021/11/23 12:21:22;;;;;;;8.40;5.13;;;;;;;;;;5052213;28;20457;-88
2021/11/23 12:23:53;;;;;;;5.80;5.27;;;8.70;98.30;;;;;;5043324;28;20452;-90
2021/11/23 12:26:30;;;;;;;12.93;5.47;;;9.20;98.80;;;;;;5035589;28;20462;-93
2021/11/23 12:29:11;;;;;;;7.20;5.30;;;9.90;97.90;;;;;;5039975;28;20832;-93
2021/11/23 12:31:48;;;;;;;6.30;4.80;;;9.80;97.40;;;;;;5048460;28;20454;-92
2021/11/23 12:34:17;;;;;;;5.40;4.90;;;;;;;;;;5013098;28;20458;-92
2021/11/23 12:37:00;;;;;;;6.30;5.13;;;;;;;;;;5049627;28;20487;-93
2021/11/23 12:39:36;;;;;;;7.83;4.90;;;;;;;;;;5054301;28;20442;-93
2021/11/23 12:45:00;;;;;;;4.90;4.40;;;;;;;;;;5005630;28;20445;-91
2021/11/23 12:47:34;;;;;;;5.67;4.97;;;;;;;;;;5022252;23;20484;-93
2021/11/23 12:50:03;;;;;;;5.27;3.93;;;10.30;95.70;;;;;;5068588;28;20450;-94
2021/11/23 12:52:35;;;;;;;4.50;4.10;;;;;;;;;;5071255;28;20412;-95
2021/11/23 12:55:03;;;;;;;5.00;4.50;;;;;;;;;;5061015;28;20452;-93
2021/11/23 12:57:32;;;;;;;4.77;3.60;;;;;;;;;;5060871;28;20949;-91
2021/11/23 13:00:03;;;;;;;6.13;3.70;;;9.60;96.00;;;;;;5061754;28;20451;-95
2021/11/23 13:02:33;;;;;;;5.90;3.67;;;9.50;96.10;;;;;;5052707;28;20486;-93
2021/11/23 13:05:05;;;;;;;4.27;3.37;;;9.60;95.80;;;;;;5063152;28;20860;-94
2021/11/23 13:07:37;;;;;;;4.00;3.60;;;10.20;94.50;;;;;;5062233;28;20492;-91
2021/11/23 13:10:07;;;;;;;3.60;3.03;;;;;;;;;;5056677;28;20950;-95
2021/11/23 13:12:39;;;;;;;6.03;3.20;;;10.90;93.80;;;;;;5066884;28;20454;-92
2021/11/23 13:15:08;;;;;;;3.20;2.90;;;10.60;92.00;;;;;;5056540;28;20797;-93
2021/11/23 13:17:38;;;;;;;3.17;2.87;;;;;;;;;;5054389;28;20441;-93
2021/11/23 13:20:06;;;;;;;3.67;3.30;;;10.70;93.10;;;;;;5053287;28;20463;-94
2021/11/23 13:22:37;;;;;;;3.53;3.20;;;10.80;93.20;;;;;;5052149;28;20466;-93
2021/11/23 13:25:05;;;;;;;4.57;3.80;;;;;;;;;;5051145;28;20450;-93
2021/11/23 13:28:10;;;;;;;3.87;3.50;;;9.60;94.50;;;;;;5054193;28;20487;-93
2021/11/23 13:30:43;;;;;;;3.60;3.30;;;9.20;94.90;;;;;;5015021;28;20456;-93
2021/11/23 13:33:16;;;;;;;4.00;3.50;;;10.00;94.30;;;;;;5013979;28;20522;-92
2021/11/23 13:36:10;;;;;;;3.57;3.13;;;10.00;93.60;;;;;;5015707;28;20445;-95
2021/11/23 13:38:48;;;;;;;3.67;3.30;;;9.40;94.40;;;;;;4999259;28;20453;-94
2021/11/23 13:41:33;;;;;;;7.63;4.27;;;9.80;95.00;;;;;;5010804;28;20472;-94
2021/11/23 13:44:03;;;;;;;5.10;3.53;;;9.90;94.10;;;;;;5014578;28;20457;-96
2021/11/23 13:46:44;;;;;;;4.43;4.03;;;10.30;93.00;;;;;;5013984;28;20457;-94
2021/11/23 13:49:16;;;;;;;4.17;3.77;;;10.50;93.40;;;;;;5048281;28;20974;-93
2021/11/23 13:51:43;;;;;;;4.50;4.10;;;;;;;;;;5057275;28;20536;-95
2021/11/23 13:54:13;;;;;;;5.03;3.87;;;9.80;94.00;;;;;;5057287;28;20454;-96
2021/11/23 13:56:49;;;;;;;6.10;4.10;;;10.60;93.20;;;;;;5053815;28;20467;-96
2021/11/23 13:59:18;;;;;;;5.20;4.37;;;10.40;93.10;;;;;;5053974;28;20443;-95
2021/11/23 14:01:51;;;;;;;5.60;4.63;;;;;;;;;;5053188;28;20470;-95
2021/11/23 14:04:20;;;;;;;6.90;4.10;;;;;;;;;;5056781;28;20451;-95
2021/11/23 14:07:09;;;;;;;7.67;4.93;;;10.40;93.90;;;;;;5057303;28;20834;-93
2021/11/23 14:09:57;;;;;;;4.60;4.20;;;10.30;94.00;;;;;;5056045;28;20543;-94
2021/11/23 14:12:27;;;;;;;5.87;4.87;;;10.30;93.80;;;;;;5053202;28;20533;-94
2021/11/23 14:15:06;;;;;;;6.00;4.90;;;10.40;94.30;;;;;;5053216;28;20455;-94
2021/11/23 14:18:13;;;;;;;5.43;4.10;;;10.20;94.30;;;;;;5051700;28;20799;-94